• Join FlightAware (Why Join?)
  • Login
  • US Flag 
01:06AM EDT


 

Airport Tracker/Info


-or-


 

Live Flight TrackerFlight Track Log ✈ SKW5631 ✈ 29-Apr-2014 ✈ KSFO - KSFO

Flight Track Log - Related Links

Times and Time Zones

All times are in EDT time to prevent confusion due to time zone crossing. See the SKW5631 flight status page for this flight to view local times or setup timezone preferences in your user account.

Time Position Orientation Groundspeed Altitude Reporting Facility
EDT Latitude Longitude Course Direction KTS MPH feet Rate Location/Type
11:04PM 37.6500 -122.3667 345° North 168 193 1,600  Level Northern Cal TRACON
11:05PM 37.7000 -122.3833 345° North 222 255 4,600 3,120 Climbing Northern Cal TRACON
11:06PM 37.6500 -122.4333 218° Southwest 250 288 7,900 3,300 Climbing Northern Cal TRACON
11:07PM 37.5833 -122.4667 202° Southwest 255 293 11,200 2,880 Climbing Northern Cal TRACON
11:08PM 37.5558 -122.4567 164° South 252 290 12,300 1,800 Climbing Oakland Center
11:09PM 37.5003 -122.3983 140° Southeast 261 300 14,000 1,860 Climbing Oakland Center
11:10PM 37.4411 -122.3350 140° Southeast 278 320 16,200 2,220 Climbing Oakland Center
11:11PM 37.3758 -122.2639 139° Southeast 307 353 18,600 2,400 Climbing Oakland Center
11:12PM 37.3092 -122.1922 139° Southeast 314 361 21,200 2,340 Climbing Oakland Center
11:13PM 37.2403 -122.1167 139° Southeast 325 374 23,500 2,340 Climbing Oakland Center
11:14PM 37.1528 -122.0231 140° Southeast 343 395 26,100 2,160 Climbing Oakland Center
11:15PM 37.0786 -121.9414 139° Southeast 352 405 28,000 1,680 Climbing Oakland Center
11:16PM 37.0017 -121.8578 139° Southeast 364 419 29,600 1,560 Climbing Oakland Center
11:17PM 36.9194 -121.7731 141° Southeast 382 440 31,200 1,500 Climbing Oakland Center
11:18PM 36.8372 -121.6856 140° Southeast 385 443 32,700 840 Climbing Oakland Center
11:19PM 36.7556 -121.5983 139° Southeast 395 455 33,000 120 Climbing Oakland Center
11:20PM 36.6733 -121.5094 139° Southeast 395 455 33,000  Level Oakland Center
11:21PM 36.5794 -121.4500 153° Southeast 384 442 33,000 -1,080 Level Oakland Center
11:22PM 36.4622 -121.5014 199° South 373 429 30,800 -2,100 Descending Oakland Center
11:23PM 36.4006 -121.5831 227° Southwest 356 410 28,800 -1,980 Descending Oakland Center
11:24PM 36.3853 -121.6936 260° West 330 380 26,800 -1,980 Descending Oakland Center
11:25PM 36.4253 -121.7819 299° West 311 358 24,800 -1,680 Descending Oakland Center
11:26PM 36.5097 -121.8267 337° Northwest 308 354 23,500 -1,380 Descending Oakland Center
11:27PM 36.5764 -121.8653 335° Northwest 265 305 22,000 -1,740 Descending Oakland Center
11:28PM 36.6500 -121.9167 331° Northwest 306 352 19,900 -1,740 Descending Northern Cal TRACON
11:29PM 36.7167 -121.9500 338° Northwest 270 311 18,400 -1,500 Descending Northern Cal TRACON
11:30PM 36.7833 -121.9833 338° Northwest 255 293 17,000 -1,500 Descending Northern Cal TRACON
11:31PM 36.8667 -122.0000 351° North 253 291 15,500 -1,500 Descending Northern Cal TRACON
11:32PM 36.9333 -122.0167 349° North 251 289 14,000 -1,440 Descending Northern Cal TRACON
11:33PM 36.9858 -122.0300 349° North 253 291 12,700 -1,560 Descending Oakland Center
11:34PM 37.0681 -122.0506 349° North 253 291 10,900 -1,380 Descending Oakland Center
11:35PM 37.1353 -122.0678 348° North 251 289 9,900 -780 Descending Oakland Center
11:36PM 37.1997 -122.0842 349° North 242 278 9,400 -900 Descending Oakland Center
11:37PM 37.2633 -122.1008 348° North 238 274 8,100 -1,380 Descending Oakland Center
11:38PM 37.3258 -122.1192 347° North 235 270 6,700 -1,260 Descending Oakland Center
11:39PM 37.3833 -122.1333 349° North 230 265 5,700 -1,080 Descending Northern Cal TRACON
11:40PM 37.4500 -122.1333 360° North 217 250 4,700 -900 Descending Northern Cal TRACON
11:41PM 37.5000 -122.1500 345° North 209 241 4,000 -900 Descending Northern Cal TRACON
11:42PM 37.5453 -122.1942 322° Northwest 203 234 2,800 -960 Descending Oakland Center
11:43PM 37.5664 -122.2489 296° West 185 213 1,900 -960 Descending Oakland Center
11:44PM 37.5914 -122.3061 299° West 166 191 900 -840 Descending Oakland Center
11:46PM 37.6067 -122.3414 299° West 136 157 300 -600 Descending Oakland Center
11:49PM 37.6167 -122.3667 322° Northwest  Level FlightAware Approximate